Terminal Aerodrome Forecast
Issued by NWS Paducah, KY

Home | Current Version | Previous Version | Text Only | Print | Product List | Glossary On
Versions: 1 2 3 4 5 6 7 8 9 10 11 12 13 14 15
000
FTUS43 KPAH 311900 AAA
TAFEVV
TAF AMD
KEVV 311903Z 3119/0118 33017G27KT P6SM SCT030 BKN050
      TEMPO 3119/3123 -SHRA BKN030
     FM312300 34012G20KT P6SM BKN030
     FM010900 33010G15KT P6SM SCT030
     FM011500 34013G21KT P6SM SKC=

USA.gov is the U.S. government's official web portal to all federal, state and local government web resources and services.